Time;durP1;ratioP1;P1;durP2;ratioP2;P2;SDS_P1;SDS_P2;PMS_P1;PMS_P2;Temp;Humidity;BMP_temperature;BMP_pressure;BME280_temperature;BME280_humidity;BME280_pressure;Samples;Min_cycle;Max_cycle;Signal;HPM_P1;HPM_P2
2021/10/24 00:01:11;;;;;;;9.87;5.40;;;4.80;92.40;;;;;;5099776;28;20254;-91
2021/10/24 00:03:40;;;;;;;7.90;5.37;;;4.80;92.30;;;;;;5105799;27;20689;-91
2021/10/24 00:06:06;;;;;;;8.23;5.23;;;4.70;92.00;;;;;;5114828;27;20223;-91
2021/10/24 00:08:33;;;;;;;12.60;6.00;;;4.70;92.10;;;;;;5102300;28;20204;-92
2021/10/24 00:11:01;;;;;;;9.83;5.77;;;4.70;92.30;;;;;;5105089;27;20223;-91
2021/10/24 00:13:29;;;;;;;8.10;5.50;;;4.60;92.40;;;;;;5098666;28;20227;-91
2021/10/24 00:15:56;;;;;;;11.77;5.60;;;4.80;92.70;;;;;;5111504;28;20231;-91
2021/10/24 00:18:23;;;;;;;8.07;5.80;;;4.80;92.30;;;;;;5103296;28;20193;-91
2021/10/24 00:20:53;;;;;;;9.63;5.77;;;4.90;91.80;;;;;;5102642;28;20694;-91
2021/10/24 00:23:20;;;;;;;10.53;5.43;;;4.80;92.10;;;;;;5104776;27;20252;-91
2021/10/24 00:25:49;;;;;;;10.37;5.57;;;4.70;91.80;;;;;;5112639;28;20547;-91
2021/10/24 00:28:17;;;;;;;8.57;5.77;;;4.70;91.90;;;;;;5110439;28;20202;-91
2021/10/24 00:30:43;;;;;;;11.80;6.27;;;4.50;91.90;;;;;;5101888;28;20298;-91
2021/10/24 00:33:10;;;;;;;8.73;5.43;;;4.40;92.20;;;;;;5107751;28;20208;-91
2021/10/24 00:35:37;;;;;;;8.83;5.23;;;4.50;92.80;;;;;;5103449;28;20208;-91
2021/10/24 00:38:06;;;;;;;9.73;5.70;;;4.40;92.10;;;;;;5104926;28;20253;-90
2021/10/24 00:40:32;;;;;;;8.43;5.73;;;4.40;92.30;;;;;;5104041;28;20283;-91
2021/10/24 00:43:01;;;;;;;11.17;5.63;;;4.20;92.40;;;;;;5108402;28;20200;-91
2021/10/24 00:45:28;;;;;;;9.67;5.30;;;4.20;92.70;;;;;;5103565;28;20236;-90
2021/10/24 00:47:56;;;;;;;9.27;5.37;;;4.20;92.70;;;;;;5110361;28;20256;-91
2021/10/24 00:50:24;;;;;;;6.53;4.90;;;4.30;92.80;;;;;;5106476;28;20694;-91
2021/10/24 00:52:51;;;;;;;9.37;4.93;;;4.40;92.80;;;;;;5093819;28;20244;-90
2021/10/24 00:55:21;;;;;;;9.33;5.10;;;4.20;92.30;;;;;;5109479;28;20203;-90
2021/10/24 00:57:48;;;;;;;7.87;4.50;;;4.10;92.50;;;;;;5105772;28;20227;-91
2021/10/24 01:00:16;;;;;;;8.87;5.00;;;4.10;92.70;;;;;;5109045;28;20215;-91
2021/10/24 01:02:44;;;;;;;9.10;4.60;;;4.20;93.00;;;;;;5102317;28;20264;-90
2021/10/24 01:05:12;;;;;;;8.53;4.60;;;4.30;92.80;;;;;;5099368;28;20266;-91
2021/10/24 01:07:42;;;;;;;7.47;4.33;;;4.40;92.00;;;;;;5096494;28;20213;-90
2021/10/24 01:10:15;;;;;;;8.73;4.70;;;4.30;91.90;;;;;;5099528;28;20196;-91
2021/10/24 01:12:45;;;;;;;8.67;4.70;;;4.20;92.20;;;;;;5110650;27;20227;-91
2021/10/24 01:15:12;;;;;;;8.27;4.50;;;4.10;92.20;;;;;;5109755;27;20254;-90
2021/10/24 01:17:38;;;;;;;6.60;4.27;;;3.90;92.40;;;;;;5114829;27;20580;-90
2021/10/24 01:20:07;;;;;;;5.90;4.57;;;3.80;92.30;;;;;;5106652;28;20196;-90
2021/10/24 01:22:37;;;;;;;8.60;4.70;;;3.80;92.70;;;;;;5104118;27;20312;-90
2021/10/24 01:25:06;;;;;;;6.63;4.50;;;3.80;93.00;;;;;;5106906;28;20212;-90
2021/10/24 01:27:35;;;;;;;6.20;4.33;;;3.80;92.90;;;;;;5094967;28;20223;-91
2021/10/24 01:30:02;;;;;;;7.60;4.23;;;4.00;92.90;;;;;;5099868;28;20219;-90
2021/10/24 01:32:29;;;;;;;9.43;4.33;;;4.10;92.40;;;;;;5101794;28;20274;-91
2021/10/24 01:34:58;;;;;;;6.30;4.30;;;4.00;92.20;;;;;;5102425;27;20207;-91
2021/10/24 01:37:32;;;;;;;7.53;4.53;;;4.10;92.20;;;;;;5113524;27;20223;-91
2021/10/24 01:40:01;;;;;;;6.87;4.30;;;4.00;91.90;;;;;;5109241;27;20196;-91
2021/10/24 01:42:28;;;;;;;5.47;4.20;;;3.90;92.10;;;;;;5107732;28;20597;-90
2021/10/24 01:44:55;;;;;;;5.27;4.43;;;3.80;92.30;;;;;;5106739;28;20627;-90
2021/10/24 01:47:22;;;;;;;5.63;4.23;;;3.90;92.60;;;;;;5106355;28;20220;-89
2021/10/24 01:49:50;;;;;;;7.87;4.40;;;4.00;92.40;;;;;;5107066;28;20666;-90
2021/10/24 01:52:17;;;;;;;8.30;4.30;;;4.00;92.60;;;;;;5106922;27;20219;-90
2021/10/24 01:54:44;;;;;;;7.37;4.23;;;4.10;92.20;;;;;;5112944;27;20208;-90
2021/10/24 01:57:13;;;;;;;5.90;3.87;;;4.00;91.80;;;;;;5109958;27;20630;-91
2021/10/24 01:59:40;;;;;;;7.13;4.07;;;3.90;92.20;;;;;;5109791;27;20591;-90
2021/10/24 02:02:07;;;;;;;8.07;4.37;;;3.90;92.70;;;;;;5095436;27;20247;-90
2021/10/24 02:04:34;;;;;;;6.30;3.93;;;3.90;92.60;;;;;;5098769;28;20212;-90
2021/10/24 02:07:01;;;;;;;7.83;4.50;;;3.80;92.50;;;;;;5103522;27;20222;-90
2021/10/24 02:09:28;;;;;;;9.87;4.73;;;3.70;92.70;;;;;;5098965;28;20199;-90
2021/10/24 02:11:55;;;;;;;9.63;4.47;;;3.70;92.90;;;;;;5099789;28;20265;-90
2021/10/24 02:14:24;;;;;;;8.00;4.50;;;3.60;92.90;;;;;;5102450;27;20208;-91
2021/10/24 02:16:50;;;;;;;7.53;4.30;;;3.90;93.70;;;;;;5100700;28;20235;-91
2021/10/24 02:19:17;;;;;;;7.27;4.10;;;3.90;92.80;;;;;;5102492;27;20278;-90
2021/10/24 02:21:44;;;;;;;6.03;4.17;;;4.00;92.70;;;;;;5099493;28;20224;-90
2021/10/24 02:24:11;;;;;;;5.90;3.97;;;4.00;92.60;;;;;;5106559;27;20597;-90
2021/10/24 02:26:38;;;;;;;5.87;4.30;;;4.00;92.40;;;;;;5096025;27;20231;-90
2021/10/24 02:29:05;;;;;;;9.23;4.30;;;4.00;92.20;;;;;;5111866;27;20569;-90
2021/10/24 02:31:33;;;;;;;7.47;4.17;;;3.90;92.20;;;;;;5101062;28;20532;-90
2021/10/24 02:34:00;;;;;;;5.90;4.50;;;3.90;92.60;;;;;;5100396;28;20204;-90
2021/10/24 02:36:27;;;;;;;8.20;4.87;;;3.90;92.40;;;;;;5106189;28;20219;-91
2021/10/24 02:38:54;;;;;;;7.50;4.33;;;3.90;92.70;;;;;;5097186;27;20200;-90
2021/10/24 02:41:21;;;;;;;6.30;4.30;;;3.90;92.20;;;;;;5105544;27;20227;-91
2021/10/24 02:43:48;;;;;;;6.43;4.50;;;4.00;92.50;;;;;;5104266;28;20226;-91
2021/10/24 02:46:15;;;;;;;8.17;4.57;;;3.90;92.20;;;;;;5096134;27;20227;-91
2021/10/24 02:48:44;;;;;;;8.50;4.57;;;3.90;92.60;;;;;;5105579;28;20287;-91
2021/10/24 02:51:11;;;;;;;7.77;4.60;;;3.80;92.40;;;;;;5102339;28;20229;-91
2021/10/24 02:53:37;;;;;;;7.97;4.70;;;3.70;92.70;;;;;;5099716;27;20199;-90
2021/10/24 02:56:05;;;;;;;7.43;4.60;;;3.50;92.80;;;;;;5101319;28;20226;-90
2021/10/24 02:58:32;;;;;;;6.47;4.97;;;3.40;93.30;;;;;;5105183;28;20704;-90
2021/10/24 03:00:59;;;;;;;8.57;4.70;;;3.30;93.50;;;;;;5096399;28;20220;-90
2021/10/24 03:03:25;;;;;;;6.70;4.70;;;3.20;93.60;;;;;;5107554;28;20287;-91
2021/10/24 03:05:54;;;;;;;10.67;4.77;;;3.30;94.10;;;;;;5108856;28;20219;-90
2021/10/24 03:08:21;;;;;;;9.17;4.40;;;3.30;93.80;;;;;;5112131;28;20203;-91
2021/10/24 03:10:48;;;;;;;8.90;5.10;;;3.40;94.00;;;;;;5110574;28;20294;-90
2021/10/24 03:13:16;;;;;;;6.30;4.20;;;3.50;93.90;;;;;;5105095;28;20222;-90
2021/10/24 03:15:42;;;;;;;7.63;4.40;;;3.70;93.40;;;;;;5105906;28;20210;-91
2021/10/24 03:18:09;;;;;;;7.77;4.53;;;3.70;92.90;;;;;;5095525;28;20666;-90
2021/10/24 03:20:36;;;;;;;7.23;4.83;;;3.70;92.80;;;;;;5105229;28;20202;-90
2021/10/24 03:23:05;;;;;;;5.50;4.10;;;3.60;92.60;;;;;;5098366;28;20210;-90
2021/10/24 03:25:32;;;;;;;6.70;4.37;;;3.60;92.90;;;;;;5104414;28;20557;-91
2021/10/24 03:28:02;;;;;;;7.53;4.90;;;3.50;92.70;;;;;;5105108;28;20302;-90
2021/10/24 03:30:29;;;;;;;8.30;4.53;;;3.40;92.90;;;;;;5102477;28;20214;-90
2021/10/24 03:32:56;;;;;;;6.90;4.60;;;3.40;93.10;;;;;;5101847;28;20223;-91
2021/10/24 03:35:23;;;;;;;8.17;5.50;;;3.30;93.20;;;;;;5094174;28;20540;-91
2021/10/24 03:37:50;;;;;;;6.00;4.77;;;3.20;93.70;;;;;;5106683;27;20232;-91
2021/10/24 03:40:19;;;;;;;4.80;4.30;;;3.10;93.80;;;;;;5102560;27;20557;-90
2021/10/24 03:42:47;;;;;;;5.87;4.63;;;3.10;94.40;;;;;;5105800;28;20758;-90
2021/10/24 03:45:14;;;;;;;8.73;5.00;;;3.10;94.70;;;;;;5112528;27;20222;-91
2021/10/24 03:47:41;;;;;;;9.33;4.77;;;3.20;94.70;;;;;;5108164;28;20551;-91
2021/10/24 03:50:09;;;;;;;7.53;5.10;;;3.40;94.20;;;;;;5100552;28;20192;-91
2021/10/24 03:52:36;;;;;;;6.03;4.77;;;3.40;93.80;;;;;;5102815;28;20228;-91
2021/10/24 03:55:09;;;;;;;8.37;4.90;;;3.50;93.70;;;;;;5104822;28;20202;-91
2021/10/24 03:57:37;;;;;;;7.37;5.20;;;3.40;93.70;;;;;;5109816;27;20223;-90
2021/10/24 04:00:05;;;;;;;6.50;4.93;;;3.40;93.60;;;;;;5104156;28;20202;-91
2021/10/24 04:02:32;;;;;;;8.27;5.07;;;3.40;94.10;;;;;;5096919;28;20230;-90
2021/10/24 04:04:59;;;;;;;6.90;5.30;;;3.40;94.00;;;;;;5106125;28;20247;-91
2021/10/24 04:07:26;;;;;;;9.87;5.30;;;3.30;93.60;;;;;;5103721;28;20709;-90
2021/10/24 04:09:53;;;;;;;7.63;5.43;;;3.20;94.00;;;;;;5107254;28;20193;-91
2021/10/24 04:12:20;;;;;;;7.27;5.63;;;3.10;94.40;;;;;;5105791;27;20327;-90
2021/10/24 04:14:48;;;;;;;9.53;5.30;;;3.20;94.70;;;;;;5106785;28;20651;-89
2021/10/24 04:17:15;;;;;;;8.30;5.50;;;3.20;94.70;;;;;;5114570;27;20307;-90
2021/10/24 04:19:42;;;;;;;10.60;6.00;;;3.20;94.70;;;;;;5110835;28;20199;-91
2021/10/24 04:22:09;;;;;;;8.57;5.53;;;3.10;94.20;;;;;;5109745;28;20232;-91
2021/10/24 04:24:36;;;;;;;8.70;5.60;;;3.10;94.70;;;;;;5107715;28;20224;-90
2021/10/24 04:27:03;;;;;;;10.13;5.40;;;3.20;94.70;;;;;;5108734;28;20231;-91
2021/10/24 04:29:29;;;;;;;8.00;5.70;;;3.20;94.30;;;;;;5102953;28;20227;-90
2021/10/24 04:31:58;;;;;;;7.30;5.27;;;3.20;94.30;;;;;;5106959;27;20223;-91
2021/10/24 04:34:25;;;;;;;8.77;5.80;;;3.10;94.70;;;;;;5104525;27;20203;-90
2021/10/24 04:36:52;;;;;;;9.80;5.57;;;3.10;94.70;;;;;;5107452;28;20228;-89
2021/10/24 04:39:18;;;;;;;11.17;5.80;;;3.20;94.70;;;;;;5109786;28;20193;-91
2021/10/24 04:41:46;;;;;;;8.63;5.87;;;3.10;94.70;;;;;;5104273;27;20562;-90
2021/10/24 04:44:13;;;;;;;7.47;5.93;;;3.10;94.70;;;;;;5111531;27;20811;-91
2021/10/24 04:46:40;;;;;;;16.63;6.47;;;3.00;94.70;;;;;;5106308;28;20337;-90
2021/10/24 04:49:08;;;;;;;7.43;5.33;;;3.20;94.90;;;;;;5109841;28;20539;-91
2021/10/24 04:51:35;;;;;;;8.03;5.80;;;3.20;94.70;;;;;;5098461;28;20219;-90
2021/10/24 04:54:02;;;;;;;9.60;6.23;;;3.20;94.70;;;;;;5105893;28;20209;-91
2021/10/24 04:56:29;;;;;;;8.30;5.73;;;3.20;94.70;;;;;;5111275;28;20225;-90
2021/10/24 04:58:56;;;;;;;12.17;5.87;;;3.20;94.70;;;;;;5112317;28;20204;-90
2021/10/24 05:01:23;;;;;;;8.07;5.97;;;3.30;94.70;;;;;;5103106;28;20224;-91
2021/10/24 05:03:50;;;;;;;9.27;6.23;;;3.20;94.70;;;;;;5111376;27;20581;-91
2021/10/24 05:06:18;;;;;;;9.80;6.30;;;3.20;94.70;;;;;;5103932;28;20228;-90
2021/10/24 05:08:47;;;;;;;10.70;5.57;;;3.10;94.70;;;;;;5116266;27;20291;-90
2021/10/24 05:11:13;;;;;;;9.83;6.10;;;3.20;95.20;;;;;;5110406;28;20230;-90
2021/10/24 05:13:41;;;;;;;9.13;5.97;;;3.30;94.70;;;;;;5098982;28;20774;-89
2021/10/24 05:16:08;;;;;;;8.50;6.07;;;3.20;94.70;;;;;;5109432;28;20238;-90
2021/10/24 05:18:35;;;;;;;11.57;6.17;;;3.10;94.70;;;;;;5099493;28;20201;-90
2021/10/24 05:21:02;;;;;;;9.93;6.10;;;3.00;94.70;;;;;;5108114;28;20230;-90
2021/10/24 05:23:31;;;;;;;9.17;6.30;;;3.00;94.60;;;;;;5111243;27;20558;-90
2021/10/24 05:26:00;;;;;;;7.80;6.27;;;2.90;94.60;;;;;;5109514;27;20232;-90
2021/10/24 05:28:27;;;;;;;11.43;6.57;;;2.90;94.60;;;;;;5101898;28;20733;-91
2021/10/24 05:30:54;;;;;;;10.73;6.27;;;2.80;94.90;;;;;;5107246;28;20689;-90
2021/10/24 05:33:21;;;;;;;9.07;6.20;;;3.00;95.30;;;;;;5110608;28;20210;-90
2021/10/24 05:35:49;;;;;;;8.77;6.40;;;3.10;95.10;;;;;;5109788;28;20200;-90
2021/10/24 05:38:16;;;;;;;9.67;6.43;;;3.10;94.40;;;;;;5116440;28;20188;-91
2021/10/24 05:40:46;;;;;;;8.67;6.77;;;3.20;94.70;;;;;;5105692;27;20201;-90
2021/10/24 05:43:13;;;;;;;12.90;6.20;;;3.10;94.00;;;;;;5108076;28;20297;-90
2021/10/24 05:45:43;;;;;;;8.77;6.20;;;3.10;94.40;;;;;;5110607;28;20223;-90
2021/10/24 05:48:10;;;;;;;9.80;6.60;;;3.00;94.50;;;;;;5107423;28;20184;-89
2021/10/24 05:50:38;;;;;;;9.53;7.00;;;3.00;94.90;;;;;;5103533;27;20200;-90
2021/10/24 05:53:05;;;;;;;8.70;6.77;;;2.90;94.60;;;;;;5109895;28;20196;-90
2021/10/24 05:55:32;;;;;;;8.87;6.20;;;2.80;94.60;;;;;;5113716;28;20196;-88
2021/10/24 05:58:00;;;;;;;8.27;6.27;;;3.00;95.10;;;;;;5103455;28;20271;-88
2021/10/24 06:00:27;;;;;;;9.43;6.47;;;3.00;94.60;;;;;;5103644;27;20199;-89
2021/10/24 06:02:54;;;;;;;8.70;6.40;;;2.90;94.60;;;;;;5105877;28;20971;-89
2021/10/24 06:05:21;;;;;;;8.97;6.87;;;3.00;94.70;;;;;;5103972;28;20220;-89
2021/10/24 06:07:49;;;;;;;10.67;6.90;;;3.10;95.00;;;;;;5109424;28;20221;-89
2021/10/24 06:10:17;;;;;;;11.00;6.77;;;3.20;94.70;;;;;;5107156;27;20196;-90
2021/10/24 06:12:46;;;;;;;11.60;6.27;;;3.30;94.70;;;;;;5095920;27;20236;-90
2021/10/24 06:15:16;;;;;;;8.63;6.70;;;3.20;94.40;;;;;;5098303;28;20205;-89
2021/10/24 06:17:44;;;;;;;10.50;6.73;;;3.20;94.50;;;;;;5095351;28;20233;-89
2021/10/24 06:20:12;;;;;;;11.37;6.83;;;3.10;94.70;;;;;;5105456;28;20204;-90
2021/10/24 06:22:39;;;;;;;9.83;6.73;;;3.10;94.70;;;;;;5098016;28;20212;-89
2021/10/24 06:25:07;;;;;;;9.93;7.90;;;3.00;95.10;;;;;;5104803;28;20224;-90
2021/10/24 06:27:36;;;;;;;8.10;6.50;;;2.90;95.10;;;;;;5096814;28;20243;-90
2021/10/24 06:30:04;;;;;;;9.43;7.00;;;2.90;95.30;;;;;;5105492;28;20208;-88
2021/10/24 06:32:32;;;;;;;11.30;7.57;;;3.00;95.30;;;;;;5103100;27;20310;-89
2021/10/24 06:35:08;;;;;;;11.80;7.33;;;3.00;95.30;;;;;;5103147;28;20192;-90
2021/10/24 06:37:39;;;;;;;10.40;6.83;;;3.00;95.40;;;;;;5100616;28;20238;-89
2021/10/24 06:40:07;;;;;;;9.43;7.30;;;3.00;95.30;;;;;;5109777;28;20217;-91
2021/10/24 06:42:34;;;;;;;12.90;7.10;;;3.00;95.40;;;;;;5109771;28;20227;-91
2021/10/24 06:45:01;;;;;;;10.90;6.90;;;3.00;95.40;;;;;;5112301;28;20679;-91
2021/10/24 06:47:28;;;;;;;11.40;7.57;;;3.10;95.50;;;;;;5096306;28;20602;-90
2021/10/24 06:49:57;;;;;;;8.63;7.07;;;3.10;95.50;;;;;;5104399;28;20206;-90
2021/10/24 06:52:24;;;;;;;9.73;7.23;;;3.10;95.50;;;;;;5096914;28;20310;-89
2021/10/24 06:54:51;;;;;;;11.17;7.50;;;3.20;95.40;;;;;;5110910;27;20287;-91
2021/10/24 06:57:18;;;;;;;9.30;6.77;;;3.20;95.40;;;;;;5104301;28;20217;-91
2021/10/24 06:59:45;;;;;;;9.70;7.37;;;3.30;95.40;;;;;;5106737;28;20298;-91
2021/10/24 07:02:12;;;;;;;8.80;6.73;;;3.30;95.20;;;;;;5106840;28;20229;-91
2021/10/24 07:04:39;;;;;;;7.87;6.80;;;3.40;95.00;;;;;;5103530;28;20218;-90
2021/10/24 07:07:07;;;;;;;14.87;7.53;;;3.50;94.80;;;;;;5102051;28;20219;-90
2021/10/24 07:09:34;;;;;;;8.57;6.73;;;3.50;94.80;;;;;;5085196;28;20211;-90
2021/10/24 07:12:01;;;;;;;9.27;6.70;;;3.60;94.80;;;;;;5110217;28;20227;-91
2021/10/24 07:14:28;;;;;;;10.67;6.97;;;3.80;95.10;;;;;;5102972;27;20192;-89
2021/10/24 07:16:56;;;;;;;9.37;6.63;;;3.90;94.80;;;;;;5105310;28;20229;-92
2021/10/24 07:19:24;;;;;;;8.43;6.10;;;3.90;94.80;;;;;;5108939;27;20200;-90
2021/10/24 07:21:51;;;;;;;9.70;5.87;;;4.00;94.50;;;;;;5107597;27;20234;-90
2021/10/24 07:24:19;;;;;;;9.73;6.13;;;4.00;94.50;;;;;;5111063;27;20734;-92
2021/10/24 07:26:46;;;;;;;7.63;5.80;;;4.20;94.70;;;;;;5102924;28;20240;-91
2021/10/24 07:29:13;;;;;;;9.40;6.30;;;4.40;94.20;;;;;;5102492;28;20201;-92
2021/10/24 07:31:40;;;;;;;7.03;5.07;;;4.40;93.60;;;;;;5098167;28;20219;-90
2021/10/24 07:34:08;;;;;;;9.47;5.97;;;4.60;93.20;;;;;;5101550;28;20223;-92
2021/10/24 07:36:35;;;;;;;5.80;5.20;;;4.60;93.10;;;;;;5104212;27;20314;-89
2021/10/24 07:39:02;;;;;;;7.27;5.70;;;4.60;92.80;;;;;;5107920;28;20598;-89
2021/10/24 07:41:30;;;;;;;7.37;5.80;;;4.60;92.80;;;;;;5096678;28;20231;-90
2021/10/24 07:43:57;;;;;;;8.17;5.20;;;4.70;92.90;;;;;;5108500;28;20584;-90
2021/10/24 07:46:24;;;;;;;6.90;5.03;;;4.80;92.60;;;;;;5102803;27;20567;-88
2021/10/24 07:48:51;;;;;;;5.40;4.03;;;4.90;92.40;;;;;;5107705;27;20192;-91
2021/10/24 07:51:24;;;;;;;5.23;4.33;;;5.00;92.10;;;;;;5105272;28;20684;-90
2021/10/24 07:53:52;;;;;;;6.60;4.40;;;5.10;91.60;;;;;;5111437;28;20567;-91
2021/10/24 07:56:26;;;;;;;4.73;4.00;;;5.10;91.40;;;;;;5114387;28;20250;-90
2021/10/24 07:58:56;;;;;;;7.97;4.27;;;5.20;90.90;;;;;;5109885;28;20200;-90
2021/10/24 08:01:23;;;;;;;6.30;3.90;;;5.30;90.70;;;;;;5122162;27;20298;-91
2021/10/24 08:03:51;;;;;;;4.43;3.63;;;5.40;91.40;;;;;;5113133;28;20655;-92
2021/10/24 08:06:21;;;;;;;4.93;3.73;;;5.40;90.40;;;;;;5112057;28;20224;-91
2021/10/24 08:11:29;;;;;;;4.20;3.50;;;5.60;90.40;;;;;;5109336;28;20570;-92
2021/10/24 08:13:58;;;;;;;7.23;3.90;;;5.70;90.20;;;;;;5104763;28;20213;-90
2021/10/24 08:16:39;;;;;;;6.57;4.07;;;5.70;89.40;;;;;;5115746;28;20705;-91
2021/10/24 08:19:06;;;;;;;5.47;3.80;;;5.90;88.70;;;;;;5106582;28;20200;-93
2021/10/24 08:21:33;;;;;;;4.47;3.50;;;5.90;88.30;;;;;;5107331;27;20218;-90
2021/10/24 08:24:00;;;;;;;4.43;3.37;;;6.00;88.00;;;;;;5119308;28;20188;-88
2021/10/24 08:30:30;;;;;;;6.07;4.13;;;6.20;88.10;;;;;;5102333;28;20204;-92
2021/10/24 08:32:58;;;;;;;5.73;4.10;;;6.30;87.70;;;;;;5109640;28;20245;-93
2021/10/24 08:35:26;;;;;;;4.83;3.97;;;6.50;86.40;;;;;;5104490;28;20730;-93
2021/10/24 08:37:53;;;;;;;9.10;4.93;;;6.60;86.10;;;;;;5102884;28;20207;-92
2021/10/24 08:40:21;;;;;;;6.03;4.20;;;6.80;87.20;;;;;;5104803;27;20207;-92
2021/10/24 08:42:53;;;;;;;5.47;4.20;;;7.00;83.90;;;;;;5112669;27;20220;-93
2021/10/24 08:45:49;;;;;;;4.90;3.67;;;7.20;82.40;;;;;;5088551;28;20231;-90
2021/10/24 08:48:56;;;;;;;3.90;3.42;;;7.40;81.80;;;;;;5122737;28;20286;-88
2021/10/24 08:57:48;;;;;;;7.95;3.35;;;10.60;57.20;;;;;;5092043;28;20238;-94
2021/10/24 09:00:15;;;;;;;3.60;3.00;;;12.10;47.40;;;;;;5078700;28;20212;-93
2021/10/24 09:03:16;;;;;;;4.53;2.85;;;14.00;39.60;;;;;;5093801;28;20224;-92
2021/10/24 09:08:29;;;;;;;3.47;2.88;;;15.80;28.70;;;;;;5090509;28;20220;-92
2021/10/24 09:10:59;;;;;;;4.20;3.30;;;17.20;25.70;;;;;;5087013;28;20548;-89
2021/10/24 09:13:28;;;;;;;3.88;3.40;;;17.40;24.90;;;;;;5067280;28;20245;-87
2021/10/24 09:15:57;;;;;;;7.88;5.95;;;17.80;24.40;;;;;;5067342;28;20201;-88
2021/10/24 09:18:30;;;;;;;5.32;3.30;;;18.30;22.50;;;;;;5064658;28;20190;-87
2021/10/24 09:21:22;;;;;;;4.00;3.38;;;17.10;23.30;;;;;;5065710;28;20221;-88
2021/10/24 09:23:51;;;;;;;11.63;6.10;;;17.30;23.30;;;;;;5070265;28;20204;-88
2021/10/24 09:26:23;;;;;;;5.55;3.22;;;17.30;24.20;;;;;;5074701;28;20263;-88
2021/10/24 09:28:59;;;;;;;3.85;3.00;;;18.30;23.20;;;;;;5073534;28;20570;-91
2021/10/24 09:31:28;;;;;;;3.88;2.88;;;18.50;22.00;;;;;;5068626;28;20217;-87
2021/10/24 09:33:56;;;;;;;3.33;2.85;;;18.90;20.50;;;;;;5074276;28;20207;-88
2021/10/24 09:36:29;;;;;;;3.50;2.90;;;19.50;19.30;;;;;;5071989;28;20626;-89
2021/10/24 09:39:09;;;;;;;11.23;8.68;;;19.40;19.10;;;;;;5070539;28;20207;-88
2021/10/24 09:41:40;;;;;;;5.50;4.45;;;20.10;20.40;;;;;;5073024;28;20213;-88
2021/10/24 09:44:14;;;;;;;3.35;3.00;;;20.40;18.20;;;;;;5075587;28;20193;-88
2021/10/24 09:46:54;;;;;;;6.90;5.05;;;19.90;18.10;;;;;;5073938;28;20231;-88
2021/10/24 09:49:23;;;;;;;4.50;3.13;;;20.50;18.20;;;;;;5056734;28;20203;-87
2021/10/24 09:51:52;;;;;;;2.40;2.20;;;19.80;18.40;;;;;;5069393;28;20649;-88
2021/10/24 09:54:21;;;;;;;21.75;19.70;;;19.30;18.60;;;;;;5054230;28;20295;-89
2021/10/24 09:56:49;;;;;;;15.57;14.13;;;20.00;19.30;;;;;;5073041;28;20221;-87
2021/10/24 09:59:19;;;;;;;2.85;2.50;;;18.10;20.80;;;;;;5072857;28;20204;-87
2021/10/24 10:01:49;;;;;;;3.67;2.60;;;17.90;20.30;;;;;;5074987;28;20284;-90
2021/10/24 10:04:16;;;;;;;4.03;2.95;;;17.80;21.70;;;;;;5062724;28;20276;-90
2021/10/24 10:06:44;;;;;;;2.80;2.47;;;18.30;20.00;;;;;;5072376;28;20648;-89
2021/10/24 10:09:14;;;;;;;4.78;3.60;;;18.20;20.00;;;;;;5067595;28;20198;-91
2021/10/24 10:11:48;;;;;;;6.00;5.15;;;18.00;20.80;;;;;;5068097;28;20217;-88
2021/10/24 10:14:18;;;;;;;11.52;10.43;;;18.30;20.40;;;;;;5075297;28;20231;-91
2021/10/24 10:16:53;;;;;;;5.57;5.00;;;18.60;19.50;;;;;;5063405;28;20239;-88
2021/10/24 10:19:31;;;;;;;9.15;8.23;;;18.10;19.60;;;;;;5070146;28;20193;-88
2021/10/24 10:22:25;;;;;;;7.15;6.15;;;18.40;20.00;;;;;;5066228;28;20707;-87
2021/10/24 10:25:09;;;;;;;6.68;6.03;;;19.10;19.50;;;;;;5069292;28;20580;-87
2021/10/24 10:27:43;;;;;;;2.72;2.40;;;18.80;19.30;;;;;;5051637;28;20581;-86
2021/10/24 10:30:13;;;;;;;3.75;2.67;;;18.60;19.10;;;;;;5061182;28;20239;-86
2021/10/24 10:32:44;;;;;;;2.30;2.10;;;18.90;19.00;;;;;;5054524;28;20237;-86
2021/10/24 10:35:12;;;;;;;4.10;3.70;;;18.90;18.60;;;;;;5071475;28;20199;-86
2021/10/24 10:37:48;;;;;;;6.57;2.60;;;18.10;20.80;;;;;;5069571;28;20249;-89
2021/10/24 10:40:19;;;;;;;3.88;3.10;;;18.70;20.00;;;;;;5066957;28;20280;-87
2021/10/24 10:43:05;;;;;;;2.92;2.50;;;18.40;19.30;;;;;;5070171;28;20288;-88
2021/10/24 10:45:52;;;;;;;2.90;2.20;;;19.00;18.60;;;;;;5069445;28;20203;-88
2021/10/24 10:48:36;;;;;;;4.55;2.42;;;18.60;20.40;;;;;;5070388;28;20264;-88
2021/10/24 10:51:05;;;;;;;3.60;2.25;;;18.70;21.00;;;;;;5070301;28;20270;-85
2021/10/24 10:53:56;;;;;;;4.90;4.40;;;18.50;19.00;;;;;;5070296;28;20227;-90
2021/10/24 11:02:26;;;;;;;2.30;2.10;;;15.60;25.00;;;;;;5060039;28;20217;-90
2021/10/24 11:05:34;;;;;;;2.70;2.30;;;15.10;26.20;;;;;;5047156;28;20584;-90
2021/10/24 11:08:01;;;;;;;7.35;3.40;;;14.90;27.70;;;;;;5067075;28;20685;-91
2021/10/24 11:10:44;;;;;;;4.32;2.78;;;14.20;28.20;;;;;;5066729;28;20211;-89
2021/10/24 11:13:46;;;;;;;7.78;3.10;;;14.20;27.90;;;;;;5073179;28;20235;-91
2021/10/24 11:16:44;;;;;;;2.50;2.22;;;14.10;28.00;;;;;;5057934;28;20225;-91
2021/10/24 11:20:10;;;;;;;3.47;2.47;;;13.80;29.00;;;;;;5088240;28;20197;-92
2021/10/24 11:25:29;;;;;;;2.45;2.25;;;13.70;30.10;;;;;;4979186;28;20232;-90
2021/10/24 11:28:14;;;;;;;3.42;2.58;;;13.80;29.00;;;;;;4955894;28;20217;-89
2021/10/24 11:36:31;;;;;;;4.03;3.05;;;13.60;31.60;;;;;;5050172;28;20259;-90
2021/10/24 11:39:03;;;;;;;4.10;2.50;;;13.50;31.50;;;;;;5075700;28;20204;-90
2021/10/24 11:41:30;;;;;;;4.38;2.85;;;13.50;30.60;;;;;;5085222;28;20285;-92
2021/10/24 11:44:08;;;;;;;4.07;2.97;;;13.40;31.80;;;;;;5081840;28;20212;-90
2021/10/24 11:46:39;;;;;;;4.50;2.70;;;13.40;31.80;;;;;;5077360;28;20268;-91
2021/10/24 11:49:07;;;;;;;3.28;2.65;;;13.30;32.50;;;;;;5088077;28;20228;-92
2021/10/24 11:51:37;;;;;;;6.00;2.72;;;13.40;31.30;;;;;;5088307;28;20240;-89
2021/10/24 11:54:30;;;;;;;3.10;2.22;;;13.40;31.00;;;;;;5087552;28;20213;-89
2021/10/24 11:57:26;;;;;;;2.85;2.25;;;13.60;30.60;;;;;;5063325;28;20224;-89
2021/10/24 12:00:06;;;;;;;2.97;2.45;;;13.70;29.90;;;;;;5072872;28;20198;-89
2021/10/24 12:05:27;;;;;;;4.50;3.15;;;13.90;28.60;;;;;;5084631;28;20212;-92
2021/10/24 12:07:57;;;;;;;3.97;2.42;;;13.50;29.30;;;;;;5083589;28;20300;-91
2021/10/24 12:10:44;;;;;;;4.72;2.90;;;13.50;30.20;;;;;;5084817;28;20256;-91
2021/10/24 12:24:52;;;;;;;9.13;5.95;;;13.60;30.30;;;;;;5082885;28;20200;-93
2021/10/24 12:27:31;;;;;;;3.58;2.60;;;13.50;31.20;;;;;;5077847;28;20245;-89
2021/10/24 12:30:09;;;;;;;3.45;2.58;;;13.40;31.30;;;;;;5083483;28;20204;-90
2021/10/24 12:33:00;;;;;;;3.85;2.88;;;13.50;31.30;;;;;;5091762;28;20228;-89
2021/10/24 12:38:12;;;;;;;3.58;2.65;;;13.60;28.60;;;;;;5072976;28;20228;-89
2021/10/24 12:43:21;;;;;;;5.15;3.10;;;13.70;31.70;;;;;;5084187;28;20205;-90
2021/10/24 12:48:41;;;;;;;4.68;2.75;;;12.90;30.40;;;;;;5077709;28;20598;-89
2021/10/24 12:56:53;;;;;;;5.65;2.53;;;13.30;30.90;;;;;;5082562;28;20422;-90
2021/10/24 12:59:49;;;;;;;2.65;2.30;;;13.30;30.40;;;;;;5088024;28;20282;-92
2021/10/24 13:02:39;;;;;;;4.72;2.33;;;13.40;30.00;;;;;;5148325;22;20221;-93
2021/10/24 13:05:11;;;;;;;4.53;2.40;;;13.40;28.90;;;;;;5051433;28;20205;-93
2021/10/24 13:07:40;;;;;;;2.30;2.10;;;13.60;29.00;;;;;;5071294;28;20677;-92
2021/10/24 13:10:07;;;;;;;3.03;2.17;;;13.50;29.60;;;;;;5079918;28;20657;-91
2021/10/24 13:17:48;;;;;;;3.53;2.50;;;13.30;29.50;;;;;;5067502;28;20229;-91
2021/10/24 13:20:17;;;;;;;4.38;2.60;;;13.30;30.40;;;;;;5051114;28;20225;-91
2021/10/24 13:22:54;;;;;;;2.65;2.22;;;13.40;30.30;;;;;;5065661;28;20222;-88
2021/10/24 13:25:23;;;;;;;3.53;2.20;;;13.40;30.10;;;;;;5070367;28;20198;-89
2021/10/24 13:30:49;;;;;;;3.38;2.72;;;13.40;30.30;;;;;;5054426;28;20205;-89
2021/10/24 13:33:22;;;;;;;4.18;2.20;;;13.50;29.00;;;;;;5065604;28;20212;-90
2021/10/24 13:36:08;;;;;;;4.40;2.50;;;13.50;30.10;;;;;;5061674;28;20230;-88
2021/10/24 13:41:18;;;;;;;3.10;2.30;;;13.40;30.60;;;;;;5058534;28;20226;-89
2021/10/24 13:43:54;;;;;;;2.95;2.30;;;13.40;30.50;;;;;;5051481;28;20262;-89
2021/10/24 13:46:55;;;;;;;5.22;3.40;;;13.40;31.60;;;;;;5062898;28;20221;-88
2021/10/24 13:49:23;;;;;;;5.53;2.80;;;13.40;31.90;;;;;;5064621;28;20207;-89
2021/10/24 13:51:51;;;;;;;4.25;3.22;;;13.30;32.80;;;;;;5067596;28;20772;-89
2021/10/24 14:04:14;;;;;;;5.55;3.10;;;13.10;33.60;;;;;;5065717;28;20190;-88
2021/10/24 14:06:42;;;;;;;4.40;3.03;;;13.10;34.10;;;;;;5052417;28;20210;-87
2021/10/24 14:09:09;;;;;;;4.18;3.42;;;13.00;35.30;;;;;;5050009;28;20281;-89
2021/10/24 14:18:03;;;;;;;4.70;3.25;;;12.90;37.00;;;;;;5044091;28;20233;-92
2021/10/24 14:20:36;;;;;;;4.28;3.15;;;12.90;36.90;;;;;;5034859;28;20279;-93
2021/10/24 14:23:03;;;;;;;4.03;3.30;;;12.90;37.70;;;;;;5035051;28;20558;-92
2021/10/24 14:25:37;;;;;;;5.45;3.67;;;12.80;38.20;;;;;;5041476;28;20290;-93
2021/10/24 14:31:26;;;;;;;4.80;3.60;;;12.70;39.60;;;;;;5056422;28;20703;-92
2021/10/24 14:33:54;;;;;;;7.20;3.80;;;12.70;41.30;;;;;;5048818;28;20216;-92
2021/10/24 14:36:21;;;;;;;4.57;3.42;;;12.60;42.20;;;;;;5037803;28;20225;-92
2021/10/24 14:42:10;;;;;;;6.72;3.65;;;12.50;44.10;;;;;;5027071;28;20225;-90